Time;durP1;ratioP1;P1;durP2;ratioP2;P2;SDS_P1;SDS_P2;PMS_P1;PMS_P2;Temp;Humidity;BMP_temperature;BMP_pressure;BME280_temperature;BME280_humidity;BME280_pressure;Samples;Min_cycle;Max_cycle;Signal;HPM_P1;HPM_P2
2024/02/09 00:00:06;;;;;;;3.13;1.30;;;10.80;1.00;;;;;;5021642;28;20045;-75
2024/02/09 00:02:32;;;;;;;1.73;1.08;;;10.80;1.00;;;;;;5021564;28;20143;-75
2024/02/09 00:05:00;;;;;;;2.00;0.90;;;10.80;1.00;;;;;;5037779;28;20110;-76
2024/02/09 00:07:26;;;;;;;0.70;0.70;;;10.80;1.00;;;;;;5005080;28;20106;-75
2024/02/09 00:09:53;;;;;;;0.90;0.80;;;10.80;1.00;;;;;;5038675;28;20170;-76
2024/02/09 00:12:21;;;;;;;1.00;0.88;;;10.90;99.90;;;;;;5037747;28;20494;-76
2024/02/09 00:14:48;;;;;;;1.20;0.70;;;10.90;99.90;;;;;;5021036;28;20049;-76
2024/02/09 00:17:15;;;;;;;1.73;0.90;;;10.90;99.90;;;;;;5021866;28;20045;-77
2024/02/09 00:19:42;;;;;;;1.25;0.90;;;10.90;99.90;;;;;;5004822;28;20144;-76
2024/02/09 00:22:12;;;;;;;1.08;0.90;;;10.90;99.90;;;;;;5037015;28;20399;-76
2024/02/09 00:24:42;;;;;;;1.20;0.90;;;10.90;99.90;;;;;;5037322;28;20076;-76
2024/02/09 00:27:09;;;;;;;1.02;0.82;;;10.90;99.90;;;;;;5038493;28;20645;-76
2024/02/09 00:29:36;;;;;;;1.52;0.70;;;10.90;99.90;;;;;;5001799;28;20042;-76
2024/02/09 00:32:04;;;;;;;1.08;0.80;;;10.90;99.90;;;;;;5021117;28;20041;-76
2024/02/09 00:34:34;;;;;;;0.75;0.68;;;10.90;99.90;;;;;;5020677;28;20052;-76
2024/02/09 00:37:02;;;;;;;1.65;0.80;;;11.00;99.90;;;;;;5013880;28;20114;-76
2024/02/09 00:39:33;;;;;;;0.60;0.60;;;11.00;99.90;;;;;;5003206;28;20391;-76
2024/02/09 00:42:02;;;;;;;1.23;0.60;;;11.00;99.90;;;;;;5037251;28;20049;-76
2024/02/09 00:44:29;;;;;;;0.85;0.70;;;11.00;99.90;;;;;;5000353;28;20578;-76
2024/02/09 00:46:56;;;;;;;0.77;0.55;;;11.00;99.90;;;;;;5002528;28;20049;-77
2024/02/09 00:49:23;;;;;;;1.35;0.90;;;11.00;99.90;;;;;;5016373;28;20673;-76
2024/02/09 00:51:52;;;;;;;2.25;0.90;;;11.00;99.90;;;;;;5016846;28;20361;-76
2024/02/09 00:54:21;;;;;;;1.38;1.00;;;11.00;99.90;;;;;;5005924;28;20088;-76
2024/02/09 00:56:48;;;;;;;3.10;1.33;;;11.00;61.40;;;;;;5017068;28;20085;-76
2024/02/09 00:59:18;;;;;;;2.15;0.90;;;11.00;99.90;;;;;;5001326;28;20303;-76
2024/02/09 01:01:45;;;;;;;2.53;1.42;;;11.00;72.20;;;;;;5017656;28;20075;-76
2024/02/09 01:04:28;;;;;;;1.58;0.93;;;11.00;35.00;;;;;;5002808;28;20050;-76
2024/02/09 01:06:56;;;;;;;0.95;0.77;;;11.00;26.70;;;;;;5017432;28;20057;-77
2024/02/09 01:09:23;;;;;;;1.00;0.90;;;11.10;1.00;;;;;;5017819;28;20100;-76
2024/02/09 01:11:50;;;;;;;0.60;0.57;;;11.10;1.00;;;;;;5001199;28;20069;-78
2024/02/09 02:45:11;;;;;;;2.35;0.80;;;11.10;1.00;;;;;;5022844;28;20100;-76
2024/02/09 02:47:40;;;;;;;1.42;0.85;;;11.10;99.90;;;;;;5023316;28;20057;-76
2024/02/09 03:06:41;;;;;;;0.93;0.80;;;11.10;1.00;;;;;;5009661;28;20057;-77
2024/02/09 03:09:29;;;;;;;1.40;0.70;;;11.10;1.00;;;;;;5021793;28;20150;-77
2024/02/09 03:11:59;;;;;;;1.13;0.80;;;11.10;1.00;;;;;;5022106;28;20053;-77
2024/02/09 03:14:27;;;;;;;3.17;0.90;;;11.10;1.00;;;;;;5003430;28;20050;-77
2024/02/09 03:16:56;;;;;;;1.92;0.95;;;11.10;99.90;;;;;;5008153;28;20495;-76
2024/02/09 03:19:22;;;;;;;1.63;1.00;;;11.10;99.90;;;;;;5022874;28;20053;-77
2024/02/09 03:21:49;;;;;;;1.63;0.80;;;11.10;99.90;;;;;;5005565;28;20602;-77
2024/02/09 03:24:17;;;;;;;1.40;0.93;;;11.10;99.90;;;;;;5017736;28;20450;-77
2024/02/09 03:26:44;;;;;;;2.30;0.85;;;11.10;99.90;;;;;;5020164;28;20057;-77
2024/02/09 03:29:10;;;;;;;1.15;0.70;;;11.10;1.00;;;;;;4990822;28;20104;-76
2024/02/09 03:31:37;;;;;;;2.05;0.70;;;11.10;99.90;;;;;;5024694;28;20476;-77
2024/02/09 03:34:04;;;;;;;1.38;0.80;;;11.10;99.90;;;;;;5024060;28;20049;-77
2024/02/09 03:36:34;;;;;;;1.55;0.77;;;11.10;99.90;;;;;;5024693;28;20052;-77
2024/02/09 03:39:02;;;;;;;1.48;0.70;;;11.10;1.00;;;;;;5023203;28;20063;-77
2024/02/09 03:41:28;;;;;;;2.13;0.80;;;11.10;99.90;;;;;;5015269;28;20057;-77
2024/02/09 03:44:03;;;;;;;0.70;0.60;;;11.10;1.00;;;;;;5001793;28;20127;-77
2024/02/09 03:46:33;;;;;;;0.90;0.60;;;11.10;99.90;;;;;;5023761;28;20059;-77
2024/02/09 03:49:01;;;;;;;2.13;1.00;;;11.10;99.90;;;;;;5023034;28;20042;-77
2024/02/09 03:51:28;;;;;;;1.58;1.05;;;11.10;99.90;;;;;;5023235;28;20057;-77
2024/02/09 03:53:55;;;;;;;1.67;0.70;;;11.10;99.90;;;;;;5021826;28;20157;-78
2024/02/09 03:56:22;;;;;;;1.65;0.70;;;11.10;99.90;;;;;;5007311;28;20446;-77
2024/02/09 03:58:49;;;;;;;1.25;0.60;;;11.10;99.90;;;;;;5024863;28;20499;-77
2024/02/09 04:01:15;;;;;;;0.82;0.57;;;11.10;63.60;;;;;;5024177;28;20396;-78
2024/02/09 04:03:43;;;;;;;1.08;0.60;;;11.10;1.00;;;;;;5023935;28;20065;-77
2024/02/09 04:06:10;;;;;;;1.10;0.60;;;11.10;52.10;;;;;;5024395;28;20053;-77
2024/02/09 04:08:37;;;;;;;0.90;0.50;;;11.10;90.00;;;;;;5019472;28;20049;-77
2024/02/09 04:11:04;;;;;;;1.02;0.70;;;11.10;1.00;;;;;;5007808;28;20498;-76
2024/02/09 04:13:31;;;;;;;1.48;0.60;;;11.00;99.90;;;;;;5004084;28;20085;-77
2024/02/09 04:16:00;;;;;;;1.63;0.80;;;11.00;99.90;;;;;;4996133;28;20473;-77
2024/02/09 04:18:28;;;;;;;4.18;1.00;;;11.00;99.90;;;;;;5023649;28;20052;-77
2024/02/09 04:20:56;;;;;;;1.40;0.55;;;11.00;24.20;;;;;;5023768;28;20053;-77
2024/02/09 04:23:23;;;;;;;3.03;0.70;;;11.00;99.90;;;;;;5009661;28;20052;-77
2024/02/09 04:25:50;;;;;;;1.45;0.45;;;11.00;99.90;;;;;;4997257;28;20056;-77
2024/02/09 04:28:17;;;;;;;0.82;0.55;;;11.00;99.90;;;;;;5023489;28;20049;-76
2024/02/09 04:30:46;;;;;;;2.83;0.88;;;10.90;1.00;;;;;;5007454;28;20080;-76
2024/02/09 04:33:15;;;;;;;1.27;0.70;;;10.90;55.80;;;;;;5023221;28;20049;-77
2024/02/09 04:35:43;;;;;;;1.45;0.60;;;10.90;99.90;;;;;;5023778;28;20054;-77
2024/02/09 04:38:15;;;;;;;1.20;0.73;;;10.90;99.90;;;;;;5021687;28;20052;-76
2024/02/09 04:40:43;;;;;;;0.98;0.63;;;10.90;99.90;;;;;;5020356;28;20062;-76
2024/02/09 04:43:10;;;;;;;1.70;0.52;;;11.00;99.90;;;;;;4990706;28;20056;-77
2024/02/09 04:45:37;;;;;;;1.60;0.80;;;11.00;99.90;;;;;;5005471;28;20050;-77
2024/02/09 04:48:04;;;;;;;1.48;0.52;;;11.00;99.90;;;;;;5022619;28;20091;-76
2024/02/09 04:50:32;;;;;;;0.65;0.50;;;10.90;99.90;;;;;;5021032;28;20045;-76
2024/02/09 04:52:58;;;;;;;1.58;0.60;;;10.90;99.90;;;;;;5004605;28;20507;-77
2024/02/09 04:55:25;;;;;;;0.50;0.50;;;11.00;99.90;;;;;;5023431;28;20107;-77
2024/02/09 04:57:52;;;;;;;2.28;0.68;;;11.00;99.90;;;;;;5039571;28;20103;-77
2024/02/09 05:00:19;;;;;;;0.57;0.50;;;11.00;99.90;;;;;;5023564;28;20052;-77
2024/02/09 05:02:46;;;;;;;1.90;0.50;;;10.90;99.90;;;;;;5023206;28;20128;-77
2024/02/09 05:05:14;;;;;;;0.88;0.38;;;11.00;99.90;;;;;;5003726;28;20046;-77
2024/02/09 05:07:41;;;;;;;2.30;0.70;;;11.00;99.90;;;;;;5001932;28;20142;-78
2024/02/09 05:10:08;;;;;;;2.13;0.77;;;10.90;70.30;;;;;;5011571;28;20049;-77
2024/02/09 05:12:37;;;;;;;1.40;0.52;;;10.90;13.10;;;;;;5004981;28;20056;-76
2024/02/09 05:15:04;;;;;;;0.82;0.75;;;10.90;39.60;;;;;;5018487;28;20057;-76
2024/02/09 05:17:31;;;;;;;1.70;0.60;;;10.90;83.90;;;;;;4988791;28;20420;-77
2024/02/09 05:19:59;;;;;;;0.63;0.50;;;10.90;40.30;;;;;;5022968;28;20045;-77
2024/02/09 05:22:28;;;;;;;1.08;0.50;;;10.90;99.90;;;;;;5022788;28;20049;-76
2024/02/09 05:24:55;;;;;;;1.15;0.60;;;10.90;1.00;;;;;;5021839;28;20431;-77
2024/02/09 05:27:22;;;;;;;1.10;0.63;;;10.90;1.00;;;;;;5007035;28;20058;-77
2024/02/09 05:29:49;;;;;;;2.05;0.73;;;10.90;99.90;;;;;;5006499;28;20511;-77
2024/02/09 05:32:16;;;;;;;1.30;0.65;;;10.90;99.90;;;;;;5005704;28;20141;-77
2024/02/09 05:34:44;;;;;;;1.77;0.80;;;10.90;99.90;;;;;;5022278;28;20080;-77
2024/02/09 05:37:12;;;;;;;1.55;0.50;;;10.90;99.90;;;;;;5026845;28;20049;-77
2024/02/09 05:39:43;;;;;;;1.05;0.60;;;10.90;99.90;;;;;;5005715;28;20046;-77
2024/02/09 05:42:10;;;;;;;3.13;0.75;;;10.90;99.90;;;;;;4990906;28;20116;-77
2024/02/09 05:44:37;;;;;;;1.10;0.65;;;10.90;99.90;;;;;;5008367;28;20435;-78
2024/02/09 05:47:04;;;;;;;1.45;0.50;;;10.90;99.90;;;;;;5026290;28;20076;-78
2024/02/09 05:49:31;;;;;;;1.88;0.85;;;10.90;1.00;;;;;;5026322;28;20049;-78
2024/02/09 05:51:59;;;;;;;1.50;0.68;;;10.90;1.00;;;;;;5042861;28;20056;-78
2024/02/09 05:54:26;;;;;;;2.95;1.00;;;10.90;99.90;;;;;;5025137;28;20045;-78
2024/02/09 05:56:53;;;;;;;0.95;0.52;;;10.90;99.90;;;;;;5015191;28;20258;-76
2024/02/09 05:59:23;;;;;;;2.33;0.98;;;10.90;23.60;;;;;;5038567;28;20086;-77
2024/02/09 06:01:50;;;;;;;3.45;0.88;;;10.90;1.00;;;;;;5026857;28;20133;-77
2024/02/09 06:04:17;;;;;;;3.05;0.90;;;10.80;99.90;;;;;;5004845;28;20949;-77
2024/02/09 06:06:45;;;;;;;1.83;0.70;;;10.80;99.90;;;;;;5021849;28;20057;-77
2024/02/09 06:09:12;;;;;;;1.20;0.60;;;10.80;99.90;;;;;;5005102;28;20045;-78
2024/02/09 06:11:38;;;;;;;1.27;0.75;;;10.80;99.90;;;;;;5022920;28;20061;-76
2024/02/09 06:14:08;;;;;;;1.25;0.70;;;10.80;1.00;;;;;;5020960;28;20482;-76
2024/02/09 06:16:35;;;;;;;1.75;0.80;;;10.80;1.00;;;;;;5022522;28;20045;-76
2024/02/09 06:19:02;;;;;;;1.05;0.55;;;10.80;26.60;;;;;;5022017;28;20049;-77
2024/02/09 06:21:29;;;;;;;1.25;0.70;;;10.70;99.90;;;;;;5023054;28;20055;-77
2024/02/09 06:23:56;;;;;;;2.45;0.98;;;10.70;99.90;;;;;;5020504;28;20049;-76
2024/02/09 06:26:23;;;;;;;2.05;0.85;;;10.80;99.90;;;;;;5022003;28;20274;-77
2024/02/09 06:28:50;;;;;;;3.40;0.60;;;10.70;99.90;;;;;;5005778;28;20076;-76
2024/02/09 06:31:23;;;;;;;1.20;0.63;;;10.70;99.90;;;;;;5019727;28;20132;-77
2024/02/09 06:33:54;;;;;;;1.38;0.60;;;10.70;99.90;;;;;;5009830;28;20049;-78
2024/02/09 06:36:22;;;;;;;0.57;0.50;;;10.80;1.00;;;;;;5016715;28;20076;-77
2024/02/09 06:38:50;;;;;;;0.60;0.50;;;10.70;99.90;;;;;;5017872;28;20049;-77
2024/02/09 06:41:17;;;;;;;0.52;0.50;;;10.70;1.00;;;;;;5042723;28;20080;-76
2024/02/09 06:43:44;;;;;;;1.33;0.68;;;10.70;35.20;;;;;;5019528;28;20136;-76
2024/02/09 06:46:11;;;;;;;1.02;0.85;;;10.70;99.90;;;;;;5029264;28;20058;-76
2024/02/09 06:48:40;;;;;;;0.43;0.43;;;10.70;99.90;;;;;;5005394;28;20390;-76
2024/02/09 06:51:07;;;;;;;2.60;0.65;;;10.60;1.00;;;;;;5008132;28;20048;-76
2024/02/09 06:53:34;;;;;;;0.95;0.60;;;10.60;99.90;;;;;;5007181;28;20047;-75
2024/02/09 06:56:01;;;;;;;0.65;0.52;;;10.60;1.00;;;;;;5042647;28;20520;-77
2024/02/09 06:58:29;;;;;;;0.50;0.50;;;10.60;1.00;;;;;;5022188;28;20521;-77
2024/02/09 07:00:56;;;;;;;0.73;0.73;;;10.60;99.90;;;;;;5024188;28;20048;-77
2024/02/09 07:03:26;;;;;;;0.70;0.50;;;10.60;99.90;;;;;;5039263;28;20059;-77
2024/02/09 07:05:54;;;;;;;0.63;0.40;;;10.60;1.00;;;;;;5025422;28;20489;-78
2024/02/09 07:08:30;;;;;;;0.77;0.50;;;10.60;1.00;;;;;;5022232;28;20052;-77
2024/02/09 07:10:59;;;;;;;1.55;0.50;;;10.60;18.90;;;;;;5013619;28;20103;-77
2024/02/09 07:13:26;;;;;;;0.65;0.50;;;10.70;1.00;;;;;;5024468;28;20151;-77
2024/02/09 07:15:53;;;;;;;1.30;0.70;;;10.70;99.90;;;;;;5007998;28;20405;-77
2024/02/09 07:18:20;;;;;;;1.60;0.50;;;10.70;77.90;;;;;;5023228;28;20056;-76
2024/02/09 07:20:47;;;;;;;2.15;1.05;;;10.70;99.90;;;;;;5022943;28;20101;-76
2024/02/09 07:23:14;;;;;;;2.22;0.80;;;10.70;1.00;;;;;;5005871;28;20045;-77
2024/02/09 07:25:42;;;;;;;2.03;0.82;;;10.80;99.90;;;;;;5020123;28;20729;-77
2024/02/09 07:28:10;;;;;;;1.25;0.57;;;10.80;1.00;;;;;;5042428;28;20059;-76
2024/02/09 07:30:38;;;;;;;0.98;0.52;;;10.80;1.00;;;;;;4985811;28;20064;-77
2024/02/09 07:33:05;;;;;;;1.23;0.70;;;10.80;1.00;;;;;;5020183;28;20053;-78
2024/02/09 07:35:34;;;;;;;1.95;0.80;;;10.80;39.50;;;;;;5025071;28;20049;-78
2024/02/09 07:38:02;;;;;;;1.92;0.80;;;10.80;99.90;;;;;;5040444;28;20140;-77
2024/02/09 07:40:29;;;;;;;1.90;1.00;;;10.90;99.90;;;;;;5025962;28;20504;-77
2024/02/09 07:42:56;;;;;;;1.27;0.60;;;10.90;1.00;;;;;;5005522;28;20572;-76
2024/02/09 07:45:23;;;;;;;1.17;0.70;;;10.90;1.00;;;;;;5021487;28;20049;-77
2024/02/09 07:47:53;;;;;;;2.63;1.20;;;10.90;18.00;;;;;;5024856;28;20131;-77
2024/02/09 07:50:22;;;;;;;1.70;0.60;;;10.90;99.90;;;;;;5024417;28;20461;-77
2024/02/09 07:52:50;;;;;;;2.10;0.77;;;10.90;99.90;;;;;;5023758;28;20045;-76
2024/02/09 07:55:21;;;;;;;1.80;0.80;;;10.90;1.00;;;;;;5041036;28;20148;-78
2024/02/09 07:57:48;;;;;;;0.90;0.57;;;10.90;1.00;;;;;;5023499;28;20102;-76
2024/02/09 08:00:20;;;;;;;1.00;0.60;;;10.90;99.90;;;;;;5006910;28;20041;-77
2024/02/09 08:02:47;;;;;;;1.85;0.82;;;10.90;57.90;;;;;;5023341;28;20053;-77
2024/02/09 08:05:20;;;;;;;1.77;0.60;;;10.90;30.70;;;;;;5005552;28;20045;-77
2024/02/09 08:07:47;;;;;;;;;;;10.90;99.90;;;;;;5006787;28;20056;-76
2024/02/09 08:10:14;;;;;;;2.08;1.20;;;11.00;1.00;;;;;;5023688;28;19925;-77
2024/02/09 08:12:41;;;;;;;1.90;0.90;;;11.00;1.00;;;;;;5040132;28;20148;-77
2024/02/09 08:15:11;;;;;;;1.15;0.70;;;11.00;1.00;;;;;;5022845;28;20079;-76
2024/02/09 08:17:45;;;;;;;0.95;0.60;;;11.00;1.00;;;;;;5023773;28;20064;-79
2024/02/09 08:20:15;;;;;;;1.85;0.90;;;11.10;1.00;;;;;;5023770;28;20352;-76
2024/02/09 08:22:45;;;;;;;2.00;0.68;;;11.00;99.90;;;;;;5039329;28;20052;-76
2024/02/09 08:25:12;;;;;;;1.98;0.75;;;11.00;99.90;;;;;;5022487;28;20428;-76
2024/02/09 08:27:39;;;;;;;0.93;0.77;;;11.00;99.90;;;;;;5022018;28;20064;-77
2024/02/09 08:30:08;;;;;;;2.50;0.70;;;11.10;99.90;;;;;;5023209;28;20045;-77
2024/02/09 08:32:37;;;;;;;1.13;0.70;;;11.10;1.00;;;;;;5005950;28;20087;-78
2024/02/09 08:35:04;;;;;;;2.20;1.15;;;11.10;1.00;;;;;;5022899;28;20084;-78
2024/02/09 08:37:31;;;;;;;1.15;0.68;;;11.10;1.00;;;;;;5022014;28;20080;-78
2024/02/09 08:39:58;;;;;;;2.35;0.68;;;11.10;69.10;;;;;;5005578;28;20049;-77
2024/02/09 08:42:26;;;;;;;2.50;1.10;;;11.10;99.90;;;;;;5004580;28;20132;-77
2024/02/09 08:44:53;;;;;;;2.40;1.10;;;11.10;94.20;;;;;;5022813;28;20057;-78
2024/02/09 08:47:22;;;;;;;2.58;0.82;;;11.10;45.80;;;;;;5017881;28;20057;-78
2024/02/09 08:49:49;;;;;;;3.05;0.85;;;11.10;99.90;;;;;;5017863;28;20056;-78
2024/02/09 08:52:17;;;;;;;4.93;1.42;;;11.10;99.90;;;;;;4999732;28;20291;-78
2024/02/09 08:54:45;;;;;;;1.42;1.00;;;11.20;1.00;;;;;;5017574;28;20045;-79
2024/02/09 08:57:14;;;;;;;2.28;1.00;;;11.20;1.00;;;;;;5018435;28;20083;-79
2024/02/09 08:59:42;;;;;;;2.72;1.05;;;11.30;99.90;;;;;;5019234;28;20542;-78
2024/02/09 09:02:11;;;;;;;3.17;1.00;;;11.30;99.90;;;;;;5010398;28;20488;-79
2024/02/09 09:04:38;;;;;;;3.35;1.40;;;11.40;48.40;;;;;;5018682;28;20064;-79
2024/02/09 09:07:05;;;;;;;2.97;1.10;;;11.40;1.00;;;;;;5003263;28;20045;-79
2024/02/09 09:09:33;;;;;;;3.10;1.10;;;11.50;1.00;;;;;;5001841;28;20054;-79
2024/02/09 09:12:02;;;;;;;2.60;1.00;;;11.50;1.00;;;;;;4984663;28;20462;-79
2024/02/09 09:14:34;;;;;;;3.78;1.40;;;11.50;1.00;;;;;;5018410;28;20061;-78
2024/02/09 09:17:01;;;;;;;5.22;1.20;;;11.60;1.00;;;;;;5019896;28;20046;-78
2024/02/09 09:19:46;;;;;;;2.08;0.93;;;11.60;32.70;;;;;;5017766;28;20061;-78
2024/02/09 09:22:13;;;;;;;4.53;1.77;;;11.60;99.90;;;;;;5002487;28;20514;-79
2024/02/09 09:24:40;;;;;;;4.68;1.30;;;11.50;99.90;;;;;;5017157;28;20057;-79
2024/02/09 09:27:08;;;;;;;2.95;1.33;;;11.50;99.90;;;;;;5020673;28;20048;-78
2024/02/09 09:29:35;;;;;;;2.40;1.23;;;11.60;99.90;;;;;;5020642;28;20049;-79
2024/02/09 09:32:02;;;;;;;3.70;1.40;;;11.70;1.00;;;;;;5019010;28;20054;-78
2024/02/09 09:34:30;;;;;;;2.58;1.10;;;11.80;1.00;;;;;;4998667;28;20042;-76
2024/02/09 09:36:58;;;;;;;2.80;0.98;;;11.90;1.00;;;;;;5018402;28;20052;-78
2024/02/09 09:39:26;;;;;;;3.97;1.50;;;12.00;99.90;;;;;;5017721;28;20621;-78
2024/02/09 09:41:55;;;;;;;2.20;0.80;;;12.00;99.90;;;;;;5020062;28;20045;-78
2024/02/09 09:44:26;;;;;;;2.35;1.20;;;12.10;99.90;;;;;;5001442;28;20048;-78
2024/02/09 09:46:54;;;;;;;3.83;1.42;;;12.00;99.90;;;;;;5018354;28;20092;-78
2024/02/09 09:49:22;;;;;;;3.38;1.27;;;12.00;99.90;;;;;;5003125;28;20152;-77
2024/02/09 09:51:51;;;;;;;3.25;1.02;;;12.10;99.90;;;;;;5010223;28;20147;-78
2024/02/09 09:54:21;;;;;;;4.57;1.48;;;12.20;99.90;;;;;;5000979;28;20059;-78
2024/02/09 09:56:48;;;;;;;3.00;1.27;;;12.30;99.90;;;;;;5001177;28;20053;-77
2024/02/09 09:59:17;;;;;;;3.25;1.52;;;12.30;99.90;;;;;;4991980;28;20591;-77
2024/02/09 10:01:48;;;;;;;3.08;1.20;;;12.30;99.90;;;;;;5018476;28;20050;-77
2024/02/09 10:04:16;;;;;;;2.70;1.30;;;12.30;99.90;;;;;;5017303;28;20049;-78
2024/02/09 10:06:43;;;;;;;3.22;1.38;;;12.30;99.90;;;;;;5019274;28;20443;-78
2024/02/09 10:09:12;;;;;;;4.90;1.25;;;12.40;99.90;;;;;;5017300;28;20060;-77
2024/02/09 10:11:40;;;;;;;4.22;1.23;;;12.40;99.90;;;;;;5020637;28;20096;-78
2024/02/09 10:14:15;;;;;;;2.92;1.10;;;12.50;99.90;;;;;;5002612;28;20095;-78
2024/02/09 10:16:46;;;;;;;3.08;1.00;;;12.60;99.90;;;;;;5019237;28;20057;-78
2024/02/09 10:19:13;;;;;;;2.70;1.50;;;12.60;99.90;;;;;;5003286;28;20053;-77
2024/02/09 10:21:42;;;;;;;1.52;1.10;;;12.60;99.90;;;;;;5020182;28;20056;-78
2024/02/09 10:24:23;;;;;;;2.30;0.82;;;12.70;99.90;;;;;;5021144;28;20061;-78
2024/02/09 10:26:50;;;;;;;2.33;1.10;;;12.70;99.90;;;;;;5022160;28;20267;-78
2024/02/09 10:29:18;;;;;;;1.30;0.60;;;12.60;99.90;;;;;;5022166;28;20049;-79
2024/02/09 10:31:49;;;;;;;1.67;0.60;;;12.60;99.90;;;;;;5021628;28;20049;-77
2024/02/09 10:34:16;;;;;;;1.55;0.70;;;12.60;99.90;;;;;;5022219;28;20361;-76
2024/02/09 10:36:43;;;;;;;0.77;0.55;;;12.40;99.90;;;;;;5022451;28;20129;-76
2024/02/09 10:39:10;;;;;;;0.85;0.50;;;12.40;99.90;;;;;;5020941;28;20132;-77
2024/02/09 10:41:39;;;;;;;2.47;0.73;;;12.40;1.00;;;;;;5021945;28;20131;-77
2024/02/09 10:44:08;;;;;;;1.30;0.60;;;12.40;1.00;;;;;;5005487;28;20053;-77
2024/02/09 10:46:38;;;;;;;1.00;0.60;;;12.40;1.00;;;;;;5021702;28;20534;-77
2024/02/09 10:49:08;;;;;;;2.22;1.02;;;12.30;1.00;;;;;;5021717;28;20221;-77
2024/02/09 10:51:36;;;;;;;4.63;1.17;;;12.30;1.00;;;;;;5022243;28;20052;-77
2024/02/09 10:54:18;;;;;;;1.20;0.70;;;12.30;1.00;;;;;;5020091;28;20128;-77
2024/02/09 10:56:50;;;;;;;1.13;0.93;;;12.20;99.90;;;;;;5022053;28;20655;-77
2024/02/09 10:59:22;;;;;;;3.08;0.93;;;12.30;99.90;;;;;;5021982;28;20529;-77
2024/02/09 11:01:50;;;;;;;2.67;1.08;;;12.30;99.90;;;;;;5022628;28;20057;-77
2024/02/09 11:04:17;;;;;;;2.00;0.90;;;12.40;99.90;;;;;;5003391;28;20057;-76
2024/02/09 11:06:44;;;;;;;1.73;0.73;;;12.40;99.90;;;;;;5006971;28;20766;-76
2024/02/09 11:09:11;;;;;;;5.03;1.10;;;12.40;99.90;;;;;;5023572;28;20088;-76
2024/02/09 11:11:45;;;;;;;4.22;1.60;;;12.30;99.90;;;;;;5024904;28;20060;-77
2024/02/09 11:14:12;;;;;;;2.75;0.73;;;12.30;99.90;;;;;;5024275;28;20049;-76
2024/02/09 11:16:46;;;;;;;2.22;0.80;;;12.40;99.90;;;;;;5024817;28;20042;-76
2024/02/09 11:19:14;;;;;;;1.40;1.00;;;12.50;99.90;;;;;;5024070;28;20064;-76
2024/02/09 11:22:08;;;;;;;2.78;1.25;;;12.50;99.90;;;;;;5021309;28;20052;-76
2024/02/09 11:24:35;;;;;;;;;;;12.60;99.90;;;;;;5015414;28;20103;-77
2024/02/09 11:27:03;;;;;;;4.07;1.35;;;12.60;99.90;;;;;;5030460;28;19971;-76
2024/02/09 11:29:32;;;;;;;3.50;1.10;;;12.60;99.90;;;;;;5022530;28;20103;-76
2024/02/09 11:32:04;;;;;;;4.22;1.38;;;12.70;99.90;;;;;;5025955;28;20433;-76
2024/02/09 11:34:34;;;;;;;2.85;1.40;;;12.70;99.90;;;;;;5021454;28;20224;-75
2024/02/09 11:37:01;;;;;;;4.03;1.27;;;12.60;99.90;;;;;;5025432;28;20053;-76
2024/02/09 11:39:33;;;;;;;3.17;1.48;;;12.60;99.90;;;;;;5009015;28;20057;-76
2024/02/09 11:42:04;;;;;;;3.63;1.00;;;12.60;99.90;;;;;;4996309;28;20057;-75
2024/02/09 11:54:08;;;;;;;5.63;1.50;;;12.60;99.90;;;;;;4791571;29;20058;-78
2024/02/09 11:56:37;;;;;;;3.35;1.63;;;12.70;99.90;;;;;;4778226;29;20058;-80
2024/02/09 11:59:04;;;;;;;5.25;1.70;;;12.90;99.90;;;;;;4801740;29;20826;-81
2024/02/09 12:07:02;;;;;;;3.50;1.33;;;13.40;99.90;;;;;;2429645;23;20044;-78
2024/02/09 12:09:30;;;;;;;3.42;1.48;;;13.50;99.90;;;;;;4822921;29;20558;-84
2024/02/09 12:11:57;;;;;;;3.03;1.23;;;13.60;99.90;;;;;;4813029;29;20558;-77
2024/02/09 12:14:25;;;;;;;2.97;1.30;;;13.60;99.90;;;;;;4853193;29;20064;-77
2024/02/09 12:16:56;;;;;;;4.03;1.55;;;13.60;99.90;;;;;;4849356;29;20049;-77
2024/02/09 12:19:22;;;;;;;2.97;1.42;;;13.60;99.90;;;;;;4847818;29;20063;-78
2024/02/09 12:21:51;;;;;;;4.18;1.70;;;13.60;99.90;;;;;;4849462;29;20050;-77
2024/02/09 12:24:18;;;;;;;3.45;1.25;;;13.60;99.90;;;;;;4836468;29;20064;-77
2024/02/09 12:26:45;;;;;;;5.35;1.88;;;13.80;99.90;;;;;;4838186;29;20049;-78
2024/02/09 12:29:12;;;;;;;5.53;2.28;;;13.90;99.90;;;;;;4849202;29;20492;-78
2024/02/09 12:31:43;;;;;;;2.70;0.90;;;13.80;99.90;;;;;;4858884;29;20600;-78
2024/02/09 12:34:12;;;;;;;2.90;1.23;;;13.80;99.90;;;;;;4855174;29;20072;-78
2024/02/09 12:36:41;;;;;;;3.25;1.50;;;13.70;99.90;;;;;;4842526;29;20367;-77
2024/02/09 12:39:11;;;;;;;3.03;1.02;;;13.70;99.90;;;;;;4857469;29;20053;-78
2024/02/09 12:41:40;;;;;;;3.22;1.52;;;13.70;99.90;;;;;;4855868;29;20053;-77
2024/02/09 12:44:09;;;;;;;4.32;1.73;;;13.60;99.90;;;;;;4848270;29;20353;-78
2024/02/09 12:46:36;;;;;;;5.78;1.30;;;13.70;99.90;;;;;;4850963;29;20081;-78
2024/02/09 12:49:04;;;;;;;4.60;1.60;;;13.60;99.90;;;;;;4868871;29;20057;-78
2024/02/09 12:51:32;;;;;;;2.28;1.20;;;13.60;99.90;;;;;;4851879;29;20053;-78
2024/02/09 12:54:02;;;;;;;3.13;1.30;;;13.50;99.90;;;;;;4856226;29;20065;-79
2024/02/09 12:56:29;;;;;;;6.45;1.85;;;13.50;99.90;;;;;;4833536;29;20054;-78
2024/02/09 12:58:56;;;;;;;4.18;1.52;;;13.50;99.90;;;;;;4847392;29;20106;-78
2024/02/09 13:01:23;;;;;;;4.13;1.50;;;13.40;99.90;;;;;;4852031;29;20053;-74
2024/02/09 13:03:50;;;;;;;3.83;1.38;;;13.50;99.90;;;;;;4861518;29;20110;-74
2024/02/09 13:06:17;;;;;;;2.30;1.33;;;13.50;99.90;;;;;;4857850;29;20161;-74
2024/02/09 13:08:44;;;;;;;2.83;1.00;;;13.70;99.90;;;;;;4860633;29;20056;-74
2024/02/09 13:11:11;;;;;;;2.13;1.15;;;13.70;99.90;;;;;;4852109;29;20056;-73
2024/02/09 13:13:39;;;;;;;2.10;0.90;;;13.70;99.90;;;;;;4854302;29;20522;-73
2024/02/09 13:16:12;;;;;;;2.58;0.90;;;13.80;99.90;;;;;;4855246;29;20124;-73
2024/02/09 13:18:39;;;;;;;4.30;1.42;;;13.80;99.90;;;;;;4858398;29;20052;-73
2024/02/09 13:21:06;;;;;;;3.83;1.48;;;13.80;99.90;;;;;;4866967;29;20520;-73
2024/02/09 13:23:34;;;;;;;1.88;1.00;;;13.80;99.90;;;;;;4846102;29;20049;-74
2024/02/09 13:26:03;;;;;;;1.60;0.80;;;13.70;99.90;;;;;;4850645;29;20076;-73
2024/02/09 13:28:30;;;;;;;1.83;1.00;;;13.70;99.90;;;;;;4847400;29;20064;-74
2024/02/09 13:30:58;;;;;;;2.28;1.30;;;13.60;99.90;;;;;;4847557;29;20064;-74
2024/02/09 13:33:26;;;;;;;2.67;1.10;;;13.50;99.90;;;;;;4844378;29;20053;-74
2024/02/09 13:35:54;;;;;;;6.38;1.80;;;13.50;99.90;;;;;;4852372;29;20148;-74
2024/02/09 13:38:22;;;;;;;2.05;0.77;;;13.50;99.90;;;;;;4851606;29;20517;-74
2024/02/09 13:40:49;;;;;;;2.45;1.05;;;13.50;99.90;;;;;;4852764;29;20162;-74
2024/02/09 13:43:16;;;;;;;2.63;1.15;;;13.50;99.90;;;;;;4861784;29;20105;-75
2024/02/09 13:45:45;;;;;;;1.35;0.85;;;13.40;99.90;;;;;;4850488;29;20184;-79
2024/02/09 13:48:13;;;;;;;3.47;1.45;;;13.40;99.90;;;;;;4850371;29;20068;-83
2024/02/09 13:50:40;;;;;;;1.83;0.95;;;13.40;99.90;;;;;;4850768;29;20053;-82
2024/02/09 13:53:07;;;;;;;1.52;0.90;;;13.40;99.90;;;;;;4868266;29;20136;-82
2024/02/09 13:55:37;;;;;;;2.85;1.17;;;13.50;99.90;;;;;;4852525;29;20126;-81
2024/02/09 13:58:06;;;;;;;2.20;0.98;;;13.60;99.90;;;;;;4853694;29;20072;-82
2024/02/09 14:00:34;;;;;;;2.78;1.20;;;13.90;99.90;;;;;;4839635;29;20580;-82
2024/02/09 14:03:01;;;;;;;1.83;0.90;;;14.20;99.90;;;;;;4855789;29;20058;-81
2024/02/09 14:05:28;;;;;;;1.17;0.70;;;14.50;99.90;;;;;;4862424;29;20500;-83
2024/02/09 14:07:56;;;;;;;2.65;1.00;;;14.60;99.90;;;;;;4858331;29;20053;-85
2024/02/09 14:10:23;;;;;;;2.55;1.30;;;14.90;99.90;;;;;;4857794;29;20568;-82
2024/02/09 14:12:50;;;;;;;2.08;1.00;;;15.20;99.90;;;;;;4855299;29;20058;-85
2024/02/09 14:15:17;;;;;;;1.85;0.80;;;15.00;99.90;;;;;;4856992;29;20246;-86
2024/02/09 14:17:44;;;;;;;1.92;0.90;;;15.00;99.90;;;;;;4852632;29;20049;-86
2024/02/09 14:20:22;;;;;;;2.50;1.10;;;15.00;99.90;;;;;;4867306;29;20053;-86
2024/02/09 14:22:51;;;;;;;1.58;0.88;;;14.80;96.40;;;;;;4872353;29;20152;-86
2024/02/09 14:25:18;;;;;;;1.52;0.70;;;15.30;95.50;;;;;;4857930;29;20056;-80
2024/02/09 14:27:46;;;;;;;2.22;0.85;;;15.60;92.90;;;;;;4851773;29;20065;-82
2024/02/09 14:30:13;;;;;;;1.85;0.90;;;15.40;90.10;;;;;;4850041;29;20087;-78
2024/02/09 14:32:40;;;;;;;2.08;1.00;;;15.10;85.50;;;;;;4864549;29;20052;-78
2024/02/09 14:35:07;;;;;;;3.22;0.93;;;14.90;98.70;;;;;;4856199;29;20057;-82
2024/02/09 14:37:36;;;;;;;2.20;1.02;;;14.70;99.90;;;;;;4857715;29;20049;-86
2024/02/09 14:40:03;;;;;;;2.47;0.90;;;14.50;97.60;;;;;;4854736;29;20061;-86
2024/02/09 14:42:31;;;;;;;1.85;0.80;;;14.30;96.60;;;;;;4861113;29;20109;-86
2024/02/09 14:45:00;;;;;;;1.85;1.10;;;14.20;92.10;;;;;;4864255;29;20052;-86
2024/02/09 14:47:27;;;;;;;1.60;1.02;;;14.10;99.90;;;;;;4861897;29;20125;-85
2024/02/09 14:49:54;;;;;;;1.65;0.70;;;14.00;99.90;;;;;;4862928;29;20068;-84
2024/02/09 14:52:22;;;;;;;5.70;1.48;;;13.90;99.90;;;;;;4854704;29;20057;-85
2024/02/09 14:54:50;;;;;;;1.33;0.88;;;13.90;99.90;;;;;;4858005;29;20049;-87
2024/02/09 14:57:17;;;;;;;1.00;0.65;;;13.90;99.90;;;;;;4854558;29;20060;-79